sensor_id;sensor_type;location;lat;lon;timestamp;P1;durP1;ratioP1;P2;durP2;ratioP2
52368;SDS011;38298;50.346;3.526;2022-12-07T00:00:31;26.67;;;10.60;;
52368;SDS011;38298;50.346;3.526;2022-12-07T00:02:57;24.80;;;10.57;;
52368;SDS011;38298;50.346;3.526;2022-12-07T00:05:23;20.50;;;10.65;;
52368;SDS011;38298;50.346;3.526;2022-12-07T00:07:49;21.58;;;10.07;;
52368;SDS011;38298;50.346;3.526;2022-12-07T00:10:15;19.42;;;9.88;;
52368;SDS011;38298;50.346;3.526;2022-12-07T00:12:41;22.27;;;10.65;;
52368;SDS011;38298;50.346;3.526;2022-12-07T00:15:07;20.33;;;10.55;;
52368;SDS011;38298;50.346;3.526;2022-12-07T00:17:33;25.75;;;12.13;;
52368;SDS011;38298;50.346;3.526;2022-12-07T00:19:59;27.67;;;11.43;;
52368;SDS011;38298;50.346;3.526;2022-12-07T00:22:25;20.15;;;9.75;;
52368;SDS011;38298;50.346;3.526;2022-12-07T00:24:51;25.35;;;11.55;;
52368;SDS011;38298;50.346;3.526;2022-12-07T00:27:17;21.80;;;10.15;;
52368;SDS011;38298;50.346;3.526;2022-12-07T00:29:43;19.65;;;10.07;;
52368;SDS011;38298;50.346;3.526;2022-12-07T00:32:09;20.52;;;9.65;;
52368;SDS011;38298;50.346;3.526;2022-12-07T00:34:35;26.88;;;10.45;;
52368;SDS011;38298;50.346;3.526;2022-12-07T00:37:01;18.33;;;9.40;;
52368;SDS011;38298;50.346;3.526;2022-12-07T00:39:27;17.77;;;10.05;;
52368;SDS011;38298;50.346;3.526;2022-12-07T00:41:53;19.35;;;9.57;;
52368;SDS011;38298;50.346;3.526;2022-12-07T00:44:19;20.80;;;10.70;;
52368;SDS011;38298;50.346;3.526;2022-12-07T00:46:45;20.65;;;10.23;;
52368;SDS011;38298;50.346;3.526;2022-12-07T00:49:11;21.05;;;9.55;;
52368;SDS011;38298;50.346;3.526;2022-12-07T00:51:37;20.15;;;9.77;;
52368;SDS011;38298;50.346;3.526;2022-12-07T00:54:03;19.27;;;9.68;;
52368;SDS011;38298;50.346;3.526;2022-12-07T00:56:29;24.63;;;9.15;;
52368;SDS011;38298;50.346;3.526;2022-12-07T01:01:21;17.10;;;9.98;;
52368;SDS011;38298;50.346;3.526;2022-12-07T01:03:47;19.25;;;9.10;;
52368;SDS011;38298;50.346;3.526;2022-12-07T01:06:17;16.90;;;9.55;;
52368;SDS011;38298;50.346;3.526;2022-12-07T01:08:43;18.63;;;9.98;;
52368;SDS011;38298;50.346;3.526;2022-12-07T01:11:11;17.40;;;9.90;;
52368;SDS011;38298;50.346;3.526;2022-12-07T01:13:38;15.20;;;8.75;;
52368;SDS011;38298;50.346;3.526;2022-12-07T01:16:04;21.27;;;9.63;;
52368;SDS011;38298;50.346;3.526;2022-12-07T01:18:32;20.42;;;10.18;;
52368;SDS011;38298;50.346;3.526;2022-12-07T01:23:24;21.42;;;9.48;;
52368;SDS011;38298;50.346;3.526;2022-12-07T01:25:57;20.75;;;9.77;;
52368;SDS011;38298;50.346;3.526;2022-12-07T01:28:23;22.73;;;10.20;;
52368;SDS011;38298;50.346;3.526;2022-12-07T01:30:59;16.55;;;8.90;;
52368;SDS011;38298;50.346;3.526;2022-12-07T01:33:29;17.98;;;9.55;;
52368;SDS011;38298;50.346;3.526;2022-12-07T01:36:06;17.00;;;9.63;;
52368;SDS011;38298;50.346;3.526;2022-12-07T01:38:32;18.08;;;9.57;;
52368;SDS011;38298;50.346;3.526;2022-12-07T01:40:59;20.40;;;9.52;;
52368;SDS011;38298;50.346;3.526;2022-12-07T01:43:27;18.90;;;9.55;;
52368;SDS011;38298;50.346;3.526;2022-12-07T01:45:53;17.90;;;9.77;;
52368;SDS011;38298;50.346;3.526;2022-12-07T01:48:41;20.52;;;9.77;;
52368;SDS011;38298;50.346;3.526;2022-12-07T01:51:09;18.23;;;9.40;;
52368;SDS011;38298;50.346;3.526;2022-12-07T01:53:37;19.38;;;10.48;;
52368;SDS011;38298;50.346;3.526;2022-12-07T01:56:04;24.05;;;11.30;;
52368;SDS011;38298;50.346;3.526;2022-12-07T01:58:31;23.60;;;9.85;;
52368;SDS011;38298;50.346;3.526;2022-12-07T02:00:57;20.90;;;8.95;;
52368;SDS011;38298;50.346;3.526;2022-12-07T02:03:34;17.27;;;9.20;;
52368;SDS011;38298;50.346;3.526;2022-12-07T02:06:01;19.67;;;9.52;;
52368;SDS011;38298;50.346;3.526;2022-12-07T02:08:28;22.88;;;9.50;;
52368;SDS011;38298;50.346;3.526;2022-12-07T02:10:54;21.27;;;9.95;;
52368;SDS011;38298;50.346;3.526;2022-12-07T02:13:27;17.13;;;9.65;;
52368;SDS011;38298;50.346;3.526;2022-12-07T02:18:41;17.73;;;9.80;;
52368;SDS011;38298;50.346;3.526;2022-12-07T02:21:11;18.90;;;9.77;;
52368;SDS011;38298;50.346;3.526;2022-12-07T02:23:47;13.95;;;8.68;;
52368;SDS011;38298;50.346;3.526;2022-12-07T02:26:23;19.85;;;9.70;;
52368;SDS011;38298;50.346;3.526;2022-12-07T02:28:56;19.42;;;9.48;;
52368;SDS011;38298;50.346;3.526;2022-12-07T02:31:28;21.40;;;8.82;;
52368;SDS011;38298;50.346;3.526;2022-12-07T02:34:43;20.42;;;9.48;;
52368;SDS011;38298;50.346;3.526;2022-12-07T02:36:43;18.90;;;9.13;;
52368;SDS011;38298;50.346;3.526;2022-12-07T02:39:17;20.80;;;10.10;;
52368;SDS011;38298;50.346;3.526;2022-12-07T02:41:48;22.73;;;9.23;;
52368;SDS011;38298;50.346;3.526;2022-12-07T02:44:17;26.10;;;9.68;;
52368;SDS011;38298;50.346;3.526;2022-12-07T02:46:47;20.75;;;10.00;;
52368;SDS011;38298;50.346;3.526;2022-12-07T02:49:14;24.67;;;9.63;;
52368;SDS011;38298;50.346;3.526;2022-12-07T02:51:41;16.50;;;9.15;;
52368;SDS011;38298;50.346;3.526;2022-12-07T02:54:10;21.02;;;9.95;;
52368;SDS011;38298;50.346;3.526;2022-12-07T03:04:16;17.02;;;8.75;;
52368;SDS011;38298;50.346;3.526;2022-12-07T03:06:51;21.05;;;8.98;;
52368;SDS011;38298;50.346;3.526;2022-12-07T03:09:42;21.63;;;10.02;;
52368;SDS011;38298;50.346;3.526;2022-12-07T03:12:12;21.55;;;8.85;;
52368;SDS011;38298;50.346;3.526;2022-12-07T03:14:52;19.40;;;8.85;;
52368;SDS011;38298;50.346;3.526;2022-12-07T03:17:21;28.75;;;10.50;;
52368;SDS011;38298;50.346;3.526;2022-12-07T03:19:49;25.67;;;11.10;;
52368;SDS011;38298;50.346;3.526;2022-12-07T03:22:17;20.30;;;9.70;;
52368;SDS011;38298;50.346;3.526;2022-12-07T03:24:48;20.42;;;9.75;;
52368;SDS011;38298;50.346;3.526;2022-12-07T03:27:26;22.73;;;10.00;;
52368;SDS011;38298;50.346;3.526;2022-12-07T03:29:59;27.42;;;11.40;;
52368;SDS011;38298;50.346;3.526;2022-12-07T03:32:28;21.48;;;10.20;;
52368;SDS011;38298;50.346;3.526;2022-12-07T03:34:58;26.55;;;10.30;;
52368;SDS011;38298;50.346;3.526;2022-12-07T03:37:32;23.17;;;10.65;;
52368;SDS011;38298;50.346;3.526;2022-12-07T03:40:02;22.92;;;10.07;;
52368;SDS011;38298;50.346;3.526;2022-12-07T03:42:30;19.98;;;8.90;;
52368;SDS011;38298;50.346;3.526;2022-12-07T03:44:56;19.70;;;9.43;;
52368;SDS011;38298;50.346;3.526;2022-12-07T03:50:02;21.58;;;9.45;;
52368;SDS011;38298;50.346;3.526;2022-12-07T03:52:42;32.20;;;10.23;;
52368;SDS011;38298;50.346;3.526;2022-12-07T03:55:19;21.20;;;9.00;;
52368;SDS011;38298;50.346;3.526;2022-12-07T03:57:47;20.38;;;8.88;;
52368;SDS011;38298;50.346;3.526;2022-12-07T04:00:15;19.65;;;9.13;;
52368;SDS011;38298;50.346;3.526;2022-12-07T04:02:41;18.60;;;9.38;;
52368;SDS011;38298;50.346;3.526;2022-12-07T04:05:07;21.02;;;10.00;;
52368;SDS011;38298;50.346;3.526;2022-12-07T04:07:33;21.10;;;9.23;;
52368;SDS011;38298;50.346;3.526;2022-12-07T04:09:59;20.38;;;9.65;;
52368;SDS011;38298;50.346;3.526;2022-12-07T04:12:25;17.77;;;8.60;;
52368;SDS011;38298;50.346;3.526;2022-12-07T04:14:51;18.30;;;9.20;;
52368;SDS011;38298;50.346;3.526;2022-12-07T04:17:17;24.50;;;8.95;;
52368;SDS011;38298;50.346;3.526;2022-12-07T04:19:43;21.75;;;9.02;;
52368;SDS011;38298;50.346;3.526;2022-12-07T04:22:09;18.75;;;9.73;;
52368;SDS011;38298;50.346;3.526;2022-12-07T04:24:35;18.13;;;8.88;;
52368;SDS011;38298;50.346;3.526;2022-12-07T04:27:01;25.83;;;9.35;;
52368;SDS011;38298;50.346;3.526;2022-12-07T04:29:27;21.08;;;8.57;;
52368;SDS011;38298;50.346;3.526;2022-12-07T04:31:53;19.92;;;8.90;;
52368;SDS011;38298;50.346;3.526;2022-12-07T04:34:20;21.73;;;9.35;;
52368;SDS011;38298;50.346;3.526;2022-12-07T04:36:46;20.83;;;9.63;;
52368;SDS011;38298;50.346;3.526;2022-12-07T04:39:22;21.90;;;9.00;;
52368;SDS011;38298;50.346;3.526;2022-12-07T04:41:49;23.15;;;9.90;;
52368;SDS011;38298;50.346;3.526;2022-12-07T04:44:15;23.92;;;9.63;;
52368;SDS011;38298;50.346;3.526;2022-12-07T04:46:42;22.70;;;9.90;;
52368;SDS011;38298;50.346;3.526;2022-12-07T04:49:08;25.15;;;9.15;;
52368;SDS011;38298;50.346;3.526;2022-12-07T04:51:34;26.33;;;10.13;;
52368;SDS011;38298;50.346;3.526;2022-12-07T04:54:00;22.58;;;9.57;;
52368;SDS011;38298;50.346;3.526;2022-12-07T04:56:26;25.23;;;9.77;;
52368;SDS011;38298;50.346;3.526;2022-12-07T04:58:53;19.80;;;9.40;;
52368;SDS011;38298;50.346;3.526;2022-12-07T05:01:20;20.75;;;10.55;;
52368;SDS011;38298;50.346;3.526;2022-12-07T05:03:46;21.80;;;9.95;;
52368;SDS011;38298;50.346;3.526;2022-12-07T05:06:12;21.98;;;9.65;;
52368;SDS011;38298;50.346;3.526;2022-12-07T05:08:38;25.77;;;9.80;;
52368;SDS011;38298;50.346;3.526;2022-12-07T05:11:05;25.58;;;10.45;;
52368;SDS011;38298;50.346;3.526;2022-12-07T05:13:31;25.80;;;9.63;;
52368;SDS011;38298;50.346;3.526;2022-12-07T05:15:57;23.02;;;9.77;;
52368;SDS011;38298;50.346;3.526;2022-12-07T05:18:23;24.45;;;10.13;;
52368;SDS011;38298;50.346;3.526;2022-12-07T05:20:50;18.67;;;9.68;;
52368;SDS011;38298;50.346;3.526;2022-12-07T05:23:16;23.35;;;10.27;;
52368;SDS011;38298;50.346;3.526;2022-12-07T05:25:42;18.27;;;9.10;;
52368;SDS011;38298;50.346;3.526;2022-12-07T05:28:08;21.77;;;9.45;;
52368;SDS011;38298;50.346;3.526;2022-12-07T05:30:34;22.08;;;9.80;;
52368;SDS011;38298;50.346;3.526;2022-12-07T05:33:00;21.90;;;10.25;;
52368;SDS011;38298;50.346;3.526;2022-12-07T05:35:27;24.65;;;9.90;;
52368;SDS011;38298;50.346;3.526;2022-12-07T05:37:53;27.48;;;9.98;;
52368;SDS011;38298;50.346;3.526;2022-12-07T05:40:19;22.92;;;9.27;;
52368;SDS011;38298;50.346;3.526;2022-12-07T05:42:45;23.17;;;9.45;;
52368;SDS011;38298;50.346;3.526;2022-12-07T05:45:11;24.30;;;8.63;;
52368;SDS011;38298;50.346;3.526;2022-12-07T05:47:37;20.10;;;9.65;;
52368;SDS011;38298;50.346;3.526;2022-12-07T05:50:04;20.45;;;9.05;;
52368;SDS011;38298;50.346;3.526;2022-12-07T05:52:30;23.02;;;9.70;;
52368;SDS011;38298;50.346;3.526;2022-12-07T05:54:56;23.45;;;10.18;;
52368;SDS011;38298;50.346;3.526;2022-12-07T05:57:22;23.30;;;9.90;;
52368;SDS011;38298;50.346;3.526;2022-12-07T05:59:48;22.73;;;9.85;;
52368;SDS011;38298;50.346;3.526;2022-12-07T06:02:14;27.20;;;9.90;;
52368;SDS011;38298;50.346;3.526;2022-12-07T06:04:42;30.23;;;9.90;;
52368;SDS011;38298;50.346;3.526;2022-12-07T06:07:09;23.58;;;9.00;;
52368;SDS011;38298;50.346;3.526;2022-12-07T06:09:35;28.42;;;10.23;;
52368;SDS011;38298;50.346;3.526;2022-12-07T06:12:02;21.15;;;9.40;;
52368;SDS011;38298;50.346;3.526;2022-12-07T06:14:47;23.77;;;10.02;;
52368;SDS011;38298;50.346;3.526;2022-12-07T06:17:13;23.17;;;10.18;;
52368;SDS011;38298;50.346;3.526;2022-12-07T06:19:40;24.95;;;10.13;;
52368;SDS011;38298;50.346;3.526;2022-12-07T06:22:06;21.52;;;9.50;;
52368;SDS011;38298;50.346;3.526;2022-12-07T06:24:33;26.38;;;9.43;;
52368;SDS011;38298;50.346;3.526;2022-12-07T06:26:59;26.48;;;9.68;;
52368;SDS011;38298;50.346;3.526;2022-12-07T06:29:25;28.58;;;9.70;;
52368;SDS011;38298;50.346;3.526;2022-12-07T06:31:51;23.00;;;9.77;;
52368;SDS011;38298;50.346;3.526;2022-12-07T06:34:18;24.73;;;10.48;;
52368;SDS011;38298;50.346;3.526;2022-12-07T06:36:45;24.73;;;9.55;;
52368;SDS011;38298;50.346;3.526;2022-12-07T06:39:15;23.48;;;9.68;;
52368;SDS011;38298;50.346;3.526;2022-12-07T06:41:41;24.70;;;9.75;;
52368;SDS011;38298;50.346;3.526;2022-12-07T06:44:07;20.80;;;9.25;;
52368;SDS011;38298;50.346;3.526;2022-12-07T06:46:33;27.73;;;9.60;;
52368;SDS011;38298;50.346;3.526;2022-12-07T06:49:03;22.35;;;8.45;;
52368;SDS011;38298;50.346;3.526;2022-12-07T06:51:29;20.33;;;8.57;;
52368;SDS011;38298;50.346;3.526;2022-12-07T06:53:55;21.42;;;9.45;;
52368;SDS011;38298;50.346;3.526;2022-12-07T06:56:21;28.58;;;9.65;;
52368;SDS011;38298;50.346;3.526;2022-12-07T06:58:48;19.30;;;9.20;;
52368;SDS011;38298;50.346;3.526;2022-12-07T07:01:15;20.02;;;8.32;;
52368;SDS011;38298;50.346;3.526;2022-12-07T07:03:43;21.52;;;8.40;;
52368;SDS011;38298;50.346;3.526;2022-12-07T07:06:09;19.33;;;9.15;;
52368;SDS011;38298;50.346;3.526;2022-12-07T07:08:35;24.35;;;8.93;;
52368;SDS011;38298;50.346;3.526;2022-12-07T07:11:01;22.88;;;8.73;;
52368;SDS011;38298;50.346;3.526;2022-12-07T07:13:27;18.30;;;7.75;;
52368;SDS011;38298;50.346;3.526;2022-12-07T07:15:54;23.05;;;8.55;;
52368;SDS011;38298;50.346;3.526;2022-12-07T07:18:20;17.40;;;8.23;;
52368;SDS011;38298;50.346;3.526;2022-12-07T07:20:46;21.08;;;7.72;;
52368;SDS011;38298;50.346;3.526;2022-12-07T07:23:12;25.85;;;8.38;;
52368;SDS011;38298;50.346;3.526;2022-12-07T07:25:38;17.80;;;7.90;;
52368;SDS011;38298;50.346;3.526;2022-12-07T07:28:04;17.10;;;8.07;;
52368;SDS011;38298;50.346;3.526;2022-12-07T07:30:30;16.85;;;7.75;;
52368;SDS011;38298;50.346;3.526;2022-12-07T07:32:57;20.65;;;7.97;;
52368;SDS011;38298;50.346;3.526;2022-12-07T07:35:23;19.67;;;8.52;;
52368;SDS011;38298;50.346;3.526;2022-12-07T07:37:49;15.13;;;7.50;;
52368;SDS011;38298;50.346;3.526;2022-12-07T07:40:15;18.77;;;7.78;;
52368;SDS011;38298;50.346;3.526;2022-12-07T07:42:41;18.75;;;8.35;;
52368;SDS011;38298;50.346;3.526;2022-12-07T07:45:07;19.27;;;7.97;;
52368;SDS011;38298;50.346;3.526;2022-12-07T07:47:34;17.80;;;8.73;;
52368;SDS011;38298;50.346;3.526;2022-12-07T07:50:00;21.02;;;8.48;;
52368;SDS011;38298;50.346;3.526;2022-12-07T07:52:26;23.30;;;8.68;;
52368;SDS011;38298;50.346;3.526;2022-12-07T07:54:52;18.55;;;8.98;;
52368;SDS011;38298;50.346;3.526;2022-12-07T07:57:18;19.65;;;8.57;;
52368;SDS011;38298;50.346;3.526;2022-12-07T07:59:44;18.65;;;8.60;;
52368;SDS011;38298;50.346;3.526;2022-12-07T08:02:13;27.42;;;9.25;;
52368;SDS011;38298;50.346;3.526;2022-12-07T08:04:40;23.70;;;9.27;;
52368;SDS011;38298;50.346;3.526;2022-12-07T08:07:06;22.10;;;9.98;;
52368;SDS011;38298;50.346;3.526;2022-12-07T08:09:32;22.50;;;9.63;;
52368;SDS011;38298;50.346;3.526;2022-12-07T08:11:58;27.25;;;9.27;;
52368;SDS011;38298;50.346;3.526;2022-12-07T08:14:24;23.85;;;9.32;;
52368;SDS011;38298;50.346;3.526;2022-12-07T08:16:50;20.77;;;8.68;;
52368;SDS011;38298;50.346;3.526;2022-12-07T08:19:16;22.13;;;9.13;;
52368;SDS011;38298;50.346;3.526;2022-12-07T08:21:42;23.83;;;9.45;;
52368;SDS011;38298;50.346;3.526;2022-12-07T08:24:08;28.17;;;9.65;;
52368;SDS011;38298;50.346;3.526;2022-12-07T08:26:34;17.65;;;8.43;;
52368;SDS011;38298;50.346;3.526;2022-12-07T08:29:01;22.67;;;8.60;;
52368;SDS011;38298;50.346;3.526;2022-12-07T08:31:27;21.35;;;10.00;;
52368;SDS011;38298;50.346;3.526;2022-12-07T08:33:53;21.83;;;8.13;;
52368;SDS011;38298;50.346;3.526;2022-12-07T08:36:21;23.08;;;8.60;;
52368;SDS011;38298;50.346;3.526;2022-12-07T08:38:47;20.73;;;9.52;;
52368;SDS011;38298;50.346;3.526;2022-12-07T08:41:13;18.70;;;7.35;;
52368;SDS011;38298;50.346;3.526;2022-12-07T08:43:39;16.10;;;7.95;;
52368;SDS011;38298;50.346;3.526;2022-12-07T08:48:32;17.88;;;7.57;;
52368;SDS011;38298;50.346;3.526;2022-12-07T08:50:58;16.63;;;7.88;;
52368;SDS011;38298;50.346;3.526;2022-12-07T08:53:24;20.95;;;7.78;;
52368;SDS011;38298;50.346;3.526;2022-12-07T08:55:50;17.42;;;7.20;;
52368;SDS011;38298;50.346;3.526;2022-12-07T08:58:16;15.90;;;6.85;;
52368;SDS011;38298;50.346;3.526;2022-12-07T09:00:42;21.05;;;7.63;;
52368;SDS011;38298;50.346;3.526;2022-12-07T09:03:08;15.38;;;7.10;;
52368;SDS011;38298;50.346;3.526;2022-12-07T09:05:34;20.38;;;8.70;;
52368;SDS011;38298;50.346;3.526;2022-12-07T09:08:01;20.73;;;8.50;;
52368;SDS011;38298;50.346;3.526;2022-12-07T09:10:28;19.77;;;8.75;;
52368;SDS011;38298;50.346;3.526;2022-12-07T09:12:54;22.75;;;9.23;;
52368;SDS011;38298;50.346;3.526;2022-12-07T09:15:20;20.83;;;8.63;;
52368;SDS011;38298;50.346;3.526;2022-12-07T09:17:46;20.95;;;9.73;;
52368;SDS011;38298;50.346;3.526;2022-12-07T09:20:12;20.67;;;8.18;;
52368;SDS011;38298;50.346;3.526;2022-12-07T09:22:38;17.10;;;7.60;;
52368;SDS011;38298;50.346;3.526;2022-12-07T09:25:04;21.20;;;6.90;;
52368;SDS011;38298;50.346;3.526;2022-12-07T09:27:31;18.85;;;6.70;;
52368;SDS011;38298;50.346;3.526;2022-12-07T09:29:57;16.75;;;7.43;;
52368;SDS011;38298;50.346;3.526;2022-12-07T09:32:23;18.85;;;6.82;;
52368;SDS011;38298;50.346;3.526;2022-12-07T09:34:49;12.82;;;5.18;;
52368;SDS011;38298;50.346;3.526;2022-12-07T09:37:15;13.75;;;5.40;;
52368;SDS011;38298;50.346;3.526;2022-12-07T09:39:41;13.48;;;5.57;;
52368;SDS011;38298;50.346;3.526;2022-12-07T09:42:07;12.02;;;5.28;;
52368;SDS011;38298;50.346;3.526;2022-12-07T09:44:36;9.15;;;4.70;;
52368;SDS011;38298;50.346;3.526;2022-12-07T09:47:02;9.73;;;4.65;;
52368;SDS011;38298;50.346;3.526;2022-12-07T09:49:28;13.93;;;5.15;;
52368;SDS011;38298;50.346;3.526;2022-12-07T09:52:00;12.40;;;5.28;;
52368;SDS011;38298;50.346;3.526;2022-12-07T09:56:52;9.70;;;4.15;;
52368;SDS011;38298;50.346;3.526;2022-12-07T09:59:18;16.58;;;4.70;;
52368;SDS011;38298;50.346;3.526;2022-12-07T10:01:46;11.05;;;4.90;;
52368;SDS011;38298;50.346;3.526;2022-12-07T10:04:20;7.40;;;4.03;;
52368;SDS011;38298;50.346;3.526;2022-12-07T10:06:47;11.65;;;4.78;;
52368;SDS011;38298;50.346;3.526;2022-12-07T10:09:14;7.97;;;3.78;;
52368;SDS011;38298;50.346;3.526;2022-12-07T10:14:24;12.45;;;4.20;;
52368;SDS011;38298;50.346;3.526;2022-12-07T10:16:51;11.48;;;3.50;;
52368;SDS011;38298;50.346;3.526;2022-12-07T10:21:58;13.75;;;3.78;;
52368;SDS011;38298;50.346;3.526;2022-12-07T10:24:25;7.82;;;3.28;;
52368;SDS011;38298;50.346;3.526;2022-12-07T10:26:51;7.22;;;3.13;;
52368;SDS011;38298;50.346;3.526;2022-12-07T10:31:52;7.75;;;3.03;;
52368;SDS011;38298;50.346;3.526;2022-12-07T10:34:23;9.82;;;3.15;;
52368;SDS011;38298;50.346;3.526;2022-12-07T10:36:50;9.63;;;3.08;;
52368;SDS011;38298;50.346;3.526;2022-12-07T10:39:20;6.63;;;3.22;;
52368;SDS011;38298;50.346;3.526;2022-12-07T10:44:29;9.30;;;3.05;;
52368;SDS011;38298;50.346;3.526;2022-12-07T11:00:21;8.23;;;2.63;;
52368;SDS011;38298;50.346;3.526;2022-12-07T11:21:30;7.63;;;1.75;;
52368;SDS011;38298;50.346;3.526;2022-12-07T11:34:13;5.60;;;1.80;;
52368;SDS011;38298;50.346;3.526;2022-12-07T11:36:42;4.75;;;2.10;;
52368;SDS011;38298;50.346;3.526;2022-12-07T11:39:51;5.07;;;2.35;;
52368;SDS011;38298;50.346;3.526;2022-12-07T11:42:12;7.53;;;2.05;;
52368;SDS011;38298;50.346;3.526;2022-12-07T11:44:45;4.40;;;1.88;;
52368;SDS011;38298;50.346;3.526;2022-12-07T11:47:16;4.10;;;2.03;;
52368;SDS011;38298;50.346;3.526;2022-12-07T11:49:54;5.45;;;2.42;;
52368;SDS011;38298;50.346;3.526;2022-12-07T11:54:46;6.43;;;2.53;;
52368;SDS011;38298;50.346;3.526;2022-12-07T11:57:18;7.20;;;2.50;;
52368;SDS011;38298;50.346;3.526;2022-12-07T11:59:47;7.53;;;2.65;;
52368;SDS011;38298;50.346;3.526;2022-12-07T12:02:16;7.13;;;2.65;;
52368;SDS011;38298;50.346;3.526;2022-12-07T12:07:21;5.30;;;2.38;;
52368;SDS011;38298;50.346;3.526;2022-12-07T12:09:53;4.15;;;2.20;;
52368;SDS011;38298;50.346;3.526;2022-12-07T12:12:28;6.57;;;2.33;;
52368;SDS011;38298;50.346;3.526;2022-12-07T12:17:38;7.35;;;2.15;;
52368;SDS011;38298;50.346;3.526;2022-12-07T12:22:43;8.90;;;2.58;;
52368;SDS011;38298;50.346;3.526;2022-12-07T12:25:19;17.80;;;2.45;;
52368;SDS011;38298;50.346;3.526;2022-12-07T12:27:47;7.85;;;2.13;;
52368;SDS011;38298;50.346;3.526;2022-12-07T12:32:52;5.18;;;2.38;;
52368;SDS011;38298;50.346;3.526;2022-12-07T12:37:53;4.80;;;1.90;;
52368;SDS011;38298;50.346;3.526;2022-12-07T12:42:50;5.25;;;1.63;;
52368;SDS011;38298;50.346;3.526;2022-12-07T12:45:22;5.88;;;1.48;;
52368;SDS011;38298;50.346;3.526;2022-12-07T12:48:10;5.97;;;1.30;;
52368;SDS011;38298;50.346;3.526;2022-12-07T12:50:50;6.28;;;1.38;;
52368;SDS011;38298;50.346;3.526;2022-12-07T12:53:36;7.05;;;1.70;;
52368;SDS011;38298;50.346;3.526;2022-12-07T12:58:43;4.63;;;1.63;;
52368;SDS011;38298;50.346;3.526;2022-12-07T13:01:53;4.45;;;1.40;;
52368;SDS011;38298;50.346;3.526;2022-12-07T13:04:00;4.93;;;1.85;;
52368;SDS011;38298;50.346;3.526;2022-12-07T13:08:56;7.88;;;1.75;;
52368;SDS011;38298;50.346;3.526;2022-12-07T13:16:40;5.95;;;2.25;;
52368;SDS011;38298;50.346;3.526;2022-12-07T13:21:51;9.18;;;2.38;;
52368;SDS011;38298;50.346;3.526;2022-12-07T13:24:18;6.18;;;2.10;;
52368;SDS011;38298;50.346;3.526;2022-12-07T13:26:44;8.73;;;2.30;;
52368;SDS011;38298;50.346;3.526;2022-12-07T13:29:17;5.15;;;2.00;;
52368;SDS011;38298;50.346;3.526;2022-12-07T13:34:36;3.97;;;1.73;;
52368;SDS011;38298;50.346;3.526;2022-12-07T13:39:35;5.40;;;2.17;;
52368;SDS011;38298;50.346;3.526;2022-12-07T13:42:15;8.20;;;2.25;;
52368;SDS011;38298;50.346;3.526;2022-12-07T13:44:44;6.93;;;2.53;;
52368;SDS011;38298;50.346;3.526;2022-12-07T13:49:53;5.88;;;1.95;;
52368;SDS011;38298;50.346;3.526;2022-12-07T13:52:20;7.60;;;2.28;;
52368;SDS011;38298;50.346;3.526;2022-12-07T13:57:32;10.32;;;2.58;;
52368;SDS011;38298;50.346;3.526;2022-12-07T13:59:59;6.78;;;1.95;;
52368;SDS011;38298;50.346;3.526;2022-12-07T14:02:30;5.25;;;2.22;;
52368;SDS011;38298;50.346;3.526;2022-12-07T14:07:27;7.28;;;2.00;;
52368;SDS011;38298;50.346;3.526;2022-12-07T14:09:58;4.53;;;2.08;;
52368;SDS011;38298;50.346;3.526;2022-12-07T14:12:25;7.80;;;2.17;;
52368;SDS011;38298;50.346;3.526;2022-12-07T14:14:51;6.25;;;2.15;;
52368;SDS011;38298;50.346;3.526;2022-12-07T14:17:18;8.23;;;1.92;;
52368;SDS011;38298;50.346;3.526;2022-12-07T14:24:46;3.85;;;2.20;;
52368;SDS011;38298;50.346;3.526;2022-12-07T14:27:22;5.07;;;2.17;;
52368;SDS011;38298;50.346;3.526;2022-12-07T14:29:50;6.57;;;2.20;;
52368;SDS011;38298;50.346;3.526;2022-12-07T14:34:52;8.15;;;2.65;;
52368;SDS011;38298;50.346;3.526;2022-12-07T14:37:18;6.32;;;2.25;;
52368;SDS011;38298;50.346;3.526;2022-12-07T14:39:44;12.70;;;2.90;;
52368;SDS011;38298;50.346;3.526;2022-12-07T14:42:10;11.23;;;2.75;;
52368;SDS011;38298;50.346;3.526;2022-12-07T14:44:36;8.50;;;2.80;;
52368;SDS011;38298;50.346;3.526;2022-12-07T14:47:02;6.63;;;2.67;;
52368;SDS011;38298;50.346;3.526;2022-12-07T14:49:28;6.35;;;2.95;;
52368;SDS011;38298;50.346;3.526;2022-12-07T14:51:54;6.93;;;2.78;;
52368;SDS011;38298;50.346;3.526;2022-12-07T14:54:20;11.00;;;3.10;;
52368;SDS011;38298;50.346;3.526;2022-12-07T14:56:47;7.15;;;3.08;;
52368;SDS011;38298;50.346;3.526;2022-12-07T14:59:15;12.27;;;3.03;;
52368;SDS011;38298;50.346;3.526;2022-12-07T15:01:41;10.05;;;3.58;;
52368;SDS011;38298;50.346;3.526;2022-12-07T15:04:07;8.10;;;2.80;;
52368;SDS011;38298;50.346;3.526;2022-12-07T15:06:33;8.65;;;2.97;;
52368;SDS011;38298;50.346;3.526;2022-12-07T15:08:59;7.78;;;2.85;;
52368;SDS011;38298;50.346;3.526;2022-12-07T15:11:25;11.32;;;3.45;;
52368;SDS011;38298;50.346;3.526;2022-12-07T15:13:51;7.78;;;2.20;;
52368;SDS011;38298;50.346;3.526;2022-12-07T15:16:32;3.13;;;1.58;;
52368;SDS011;38298;50.346;3.526;2022-12-07T15:18:58;2.17;;;1.20;;
52368;SDS011;38298;50.346;3.526;2022-12-07T15:21:24;3.75;;;1.25;;
52368;SDS011;38298;50.346;3.526;2022-12-07T15:23:50;6.43;;;2.00;;
52368;SDS011;38298;50.346;3.526;2022-12-07T15:26:16;7.50;;;1.80;;
52368;SDS011;38298;50.346;3.526;2022-12-07T15:28:42;7.25;;;1.80;;
52368;SDS011;38298;50.346;3.526;2022-12-07T15:31:15;3.72;;;1.80;;
52368;SDS011;38298;50.346;3.526;2022-12-07T15:33:42;7.03;;;2.67;;
52368;SDS011;38298;50.346;3.526;2022-12-07T15:36:08;6.68;;;2.03;;
52368;SDS011;38298;50.346;3.526;2022-12-07T15:38:40;7.93;;;1.85;;
52368;SDS011;38298;50.346;3.526;2022-12-07T15:41:06;5.95;;;1.77;;
52368;SDS011;38298;50.346;3.526;2022-12-07T15:43:32;6.47;;;2.65;;
52368;SDS011;38298;50.346;3.526;2022-12-07T15:46:17;6.38;;;2.13;;
52368;SDS011;38298;50.346;3.526;2022-12-07T15:48:45;5.47;;;2.08;;
52368;SDS011;38298;50.346;3.526;2022-12-07T15:51:11;4.10;;;2.30;;
52368;SDS011;38298;50.346;3.526;2022-12-07T15:53:37;3.63;;;2.00;;
52368;SDS011;38298;50.346;3.526;2022-12-07T15:56:06;4.57;;;2.17;;
52368;SDS011;38298;50.346;3.526;2022-12-07T15:58:33;9.20;;;2.30;;
52368;SDS011;38298;50.346;3.526;2022-12-07T16:00:59;4.53;;;2.22;;
52368;SDS011;38298;50.346;3.526;2022-12-07T16:03:26;8.80;;;2.63;;
52368;SDS011;38298;50.346;3.526;2022-12-07T16:05:52;5.22;;;2.28;;
52368;SDS011;38298;50.346;3.526;2022-12-07T16:08:18;9.50;;;3.00;;
52368;SDS011;38298;50.346;3.526;2022-12-07T16:10:45;10.77;;;3.22;;
52368;SDS011;38298;50.346;3.526;2022-12-07T16:13:11;9.73;;;3.10;;
52368;SDS011;38298;50.346;3.526;2022-12-07T16:15:41;4.57;;;2.70;;
52368;SDS011;38298;50.346;3.526;2022-12-07T16:18:07;5.97;;;2.38;;
52368;SDS011;38298;50.346;3.526;2022-12-07T16:20:33;5.28;;;2.33;;
52368;SDS011;38298;50.346;3.526;2022-12-07T16:22:59;3.83;;;1.73;;
52368;SDS011;38298;50.346;3.526;2022-12-07T16:25:25;3.75;;;2.08;;
52368;SDS011;38298;50.346;3.526;2022-12-07T16:27:52;3.38;;;1.80;;
52368;SDS011;38298;50.346;3.526;2022-12-07T16:30:18;8.65;;;2.50;;
52368;SDS011;38298;50.346;3.526;2022-12-07T16:32:44;3.90;;;2.22;;
52368;SDS011;38298;50.346;3.526;2022-12-07T16:35:10;7.85;;;2.72;;
52368;SDS011;38298;50.346;3.526;2022-12-07T16:37:37;4.10;;;2.63;;
52368;SDS011;38298;50.346;3.526;2022-12-07T16:40:03;4.10;;;2.00;;
52368;SDS011;38298;50.346;3.526;2022-12-07T16:42:33;7.95;;;2.35;;
52368;SDS011;38298;50.346;3.526;2022-12-07T16:44:59;6.43;;;3.57;;
52368;SDS011;38298;50.346;3.526;2022-12-07T16:47:25;6.50;;;3.92;;